sensor_id;sensor_type;location;lat;lon;timestamp;P1;durP1;ratioP1;P2;durP2;ratioP2
33246;SDS011;19606;50.108;19.804;2023-02-08T00:00:43;213.70;;;81.10;;
33246;SDS011;19606;50.108;19.804;2023-02-08T00:03:09;214.55;;;79.78;;
33246;SDS011;19606;50.108;19.804;2023-02-08T00:05:35;194.70;;;74.65;;
33246;SDS011;19606;50.108;19.804;2023-02-08T00:08:01;182.07;;;72.18;;
33246;SDS011;19606;50.108;19.804;2023-02-08T00:10:27;177.85;;;67.85;;
33246;SDS011;19606;50.108;19.804;2023-02-08T00:12:52;210.13;;;76.00;;
33246;SDS011;19606;50.108;19.804;2023-02-08T00:15:18;195.35;;;73.05;;
33246;SDS011;19606;50.108;19.804;2023-02-08T00:17:44;198.95;;;73.43;;
33246;SDS011;19606;50.108;19.804;2023-02-08T00:20:10;205.30;;;74.70;;
33246;SDS011;19606;50.108;19.804;2023-02-08T00:22:36;199.50;;;75.50;;
33246;SDS011;19606;50.108;19.804;2023-02-08T00:25:03;188.35;;;71.82;;
33246;SDS011;19606;50.108;19.804;2023-02-08T00:27:29;194.57;;;74.05;;
33246;SDS011;19606;50.108;19.804;2023-02-08T00:29:55;218.15;;;78.10;;
33246;SDS011;19606;50.108;19.804;2023-02-08T00:32:21;179.43;;;69.50;;
33246;SDS011;19606;50.108;19.804;2023-02-08T00:34:46;188.13;;;68.63;;
33246;SDS011;19606;50.108;19.804;2023-02-08T00:37:12;180.30;;;69.97;;
33246;SDS011;19606;50.108;19.804;2023-02-08T00:39:40;208.05;;;80.88;;
33246;SDS011;19606;50.108;19.804;2023-02-08T00:42:06;249.27;;;95.82;;
33246;SDS011;19606;50.108;19.804;2023-02-08T00:44:32;266.70;;;97.57;;
33246;SDS011;19606;50.108;19.804;2023-02-08T00:46:57;264.33;;;100.10;;
33246;SDS011;19606;50.108;19.804;2023-02-08T00:49:23;266.35;;;99.20;;
33246;SDS011;19606;50.108;19.804;2023-02-08T00:51:49;286.02;;;104.43;;
33246;SDS011;19606;50.108;19.804;2023-02-08T00:54:15;267.42;;;104.18;;
33246;SDS011;19606;50.108;19.804;2023-02-08T00:56:42;262.20;;;100.50;;
33246;SDS011;19606;50.108;19.804;2023-02-08T00:59:08;278.30;;;109.03;;
33246;SDS011;19606;50.108;19.804;2023-02-08T01:01:34;304.00;;;109.53;;
33246;SDS011;19606;50.108;19.804;2023-02-08T01:03:59;282.35;;;109.75;;
33246;SDS011;19606;50.108;19.804;2023-02-08T01:06:26;293.98;;;105.30;;
33246;SDS011;19606;50.108;19.804;2023-02-08T01:08:51;275.90;;;97.55;;
33246;SDS011;19606;50.108;19.804;2023-02-08T01:11:20;281.20;;;108.20;;
33246;SDS011;19606;50.108;19.804;2023-02-08T01:13:49;268.98;;;100.00;;
33246;SDS011;19606;50.108;19.804;2023-02-08T01:16:23;277.98;;;104.47;;
33246;SDS011;19606;50.108;19.804;2023-02-08T01:18:52;291.35;;;110.47;;
33246;SDS011;19606;50.108;19.804;2023-02-08T01:21:20;294.42;;;112.13;;
33246;SDS011;19606;50.108;19.804;2023-02-08T01:23:48;285.48;;;104.32;;
33246;SDS011;19606;50.108;19.804;2023-02-08T01:26:15;280.45;;;108.10;;
33246;SDS011;19606;50.108;19.804;2023-02-08T01:28:41;273.52;;;109.18;;
33246;SDS011;19606;50.108;19.804;2023-02-08T01:31:12;287.25;;;106.80;;
33246;SDS011;19606;50.108;19.804;2023-02-08T01:33:39;279.70;;;106.25;;
33246;SDS011;19606;50.108;19.804;2023-02-08T01:36:06;272.55;;;101.68;;
33246;SDS011;19606;50.108;19.804;2023-02-08T01:38:32;307.63;;;106.40;;
33246;SDS011;19606;50.108;19.804;2023-02-08T01:40:59;273.98;;;100.43;;
33246;SDS011;19606;50.108;19.804;2023-02-08T01:43:27;253.88;;;97.07;;
33246;SDS011;19606;50.108;19.804;2023-02-08T01:45:58;262.80;;;101.70;;
33246;SDS011;19606;50.108;19.804;2023-02-08T01:48:28;271.90;;;99.38;;
33246;SDS011;19606;50.108;19.804;2023-02-08T01:50:59;272.42;;;97.72;;
33246;SDS011;19606;50.108;19.804;2023-02-08T01:53:32;261.75;;;98.82;;
33246;SDS011;19606;50.108;19.804;2023-02-08T01:56:00;296.58;;;108.45;;
33246;SDS011;19606;50.108;19.804;2023-02-08T01:58:29;291.70;;;107.55;;
33246;SDS011;19606;50.108;19.804;2023-02-08T02:00:59;295.83;;;110.50;;
33246;SDS011;19606;50.108;19.804;2023-02-08T02:03:26;287.38;;;106.65;;
33246;SDS011;19606;50.108;19.804;2023-02-08T02:06:39;279.83;;;107.03;;
33246;SDS011;19606;50.108;19.804;2023-02-08T02:11:45;282.60;;;105.22;;
33246;SDS011;19606;50.108;19.804;2023-02-08T02:14:11;283.10;;;109.13;;
33246;SDS011;19606;50.108;19.804;2023-02-08T02:16:37;275.55;;;105.70;;
33246;SDS011;19606;50.108;19.804;2023-02-08T02:19:03;241.98;;;85.93;;
33246;SDS011;19606;50.108;19.804;2023-02-08T02:33:05;271.10;;;95.15;;
33246;SDS011;19606;50.108;19.804;2023-02-08T02:41:24;261.02;;;97.60;;
33246;SDS011;19606;50.108;19.804;2023-02-08T02:44:16;255.32;;;98.85;;
33246;SDS011;19606;50.108;19.804;2023-02-08T02:46:57;267.20;;;98.80;;
33246;SDS011;19606;50.108;19.804;2023-02-08T02:49:49;262.35;;;99.82;;
33246;SDS011;19606;50.108;19.804;2023-02-08T02:52:37;264.33;;;100.75;;
33246;SDS011;19606;50.108;19.804;2023-02-08T02:55:14;262.27;;;100.30;;
33246;SDS011;19606;50.108;19.804;2023-02-08T02:57:44;280.30;;;101.85;;
33246;SDS011;19606;50.108;19.804;2023-02-08T03:00:17;270.13;;;98.70;;
33246;SDS011;19606;50.108;19.804;2023-02-08T03:02:46;275.08;;;105.35;;
33246;SDS011;19606;50.108;19.804;2023-02-08T03:05:12;290.02;;;110.53;;
33246;SDS011;19606;50.108;19.804;2023-02-08T03:08:11;292.00;;;109.53;;
33246;SDS011;19606;50.108;19.804;2023-02-08T03:16:16;304.30;;;107.55;;
33246;SDS011;19606;50.108;19.804;2023-02-08T03:24:31;226.07;;;84.75;;
33246;SDS011;19606;50.108;19.804;2023-02-08T03:35:04;282.67;;;104.97;;
33246;SDS011;19606;50.108;19.804;2023-02-08T03:38:04;294.23;;;112.03;;
33246;SDS011;19606;50.108;19.804;2023-02-08T03:40:44;296.48;;;110.47;;
33246;SDS011;19606;50.108;19.804;2023-02-08T03:43:14;295.30;;;111.90;;
33246;SDS011;19606;50.108;19.804;2023-02-08T03:45:52;271.98;;;101.82;;
33246;SDS011;19606;50.108;19.804;2023-02-08T03:48:23;287.77;;;110.15;;
33246;SDS011;19606;50.108;19.804;2023-02-08T03:50:51;264.92;;;98.80;;
33246;SDS011;19606;50.108;19.804;2023-02-08T03:53:20;280.33;;;106.22;;
33246;SDS011;19606;50.108;19.804;2023-02-08T03:55:47;284.73;;;103.20;;
33246;SDS011;19606;50.108;19.804;2023-02-08T03:58:18;292.73;;;107.15;;
33246;SDS011;19606;50.108;19.804;2023-02-08T04:00:50;234.20;;;88.28;;
33246;SDS011;19606;50.108;19.804;2023-02-08T04:03:23;231.45;;;86.45;;
33246;SDS011;19606;50.108;19.804;2023-02-08T04:05:51;199.35;;;70.80;;
33246;SDS011;19606;50.108;19.804;2023-02-08T04:08:17;182.82;;;68.28;;
33246;SDS011;19606;50.108;19.804;2023-02-08T04:10:43;161.07;;;61.47;;
33246;SDS011;19606;50.108;19.804;2023-02-08T04:13:10;141.25;;;53.95;;
33246;SDS011;19606;50.108;19.804;2023-02-08T04:15:35;139.80;;;53.13;;
33246;SDS011;19606;50.108;19.804;2023-02-08T04:18:01;135.00;;;51.90;;
33246;SDS011;19606;50.108;19.804;2023-02-08T04:20:27;141.75;;;50.90;;
33246;SDS011;19606;50.108;19.804;2023-02-08T04:22:53;128.73;;;51.72;;
33246;SDS011;19606;50.108;19.804;2023-02-08T04:25:18;133.88;;;53.28;;
33246;SDS011;19606;50.108;19.804;2023-02-08T04:27:44;138.85;;;53.15;;
33246;SDS011;19606;50.108;19.804;2023-02-08T04:30:10;141.85;;;54.33;;
33246;SDS011;19606;50.108;19.804;2023-02-08T04:32:36;143.85;;;54.38;;
33246;SDS011;19606;50.108;19.804;2023-02-08T04:35:02;137.65;;;52.05;;
33246;SDS011;19606;50.108;19.804;2023-02-08T04:37:28;142.13;;;53.47;;
33246;SDS011;19606;50.108;19.804;2023-02-08T04:39:53;135.25;;;55.35;;
33246;SDS011;19606;50.108;19.804;2023-02-08T04:42:19;130.20;;;50.35;;
33246;SDS011;19606;50.108;19.804;2023-02-08T04:44:45;125.75;;;48.97;;
33246;SDS011;19606;50.108;19.804;2023-02-08T04:47:10;116.30;;;46.55;;
33246;SDS011;19606;50.108;19.804;2023-02-08T04:49:36;118.72;;;47.35;;
33246;SDS011;19606;50.108;19.804;2023-02-08T04:52:02;116.05;;;46.05;;
33246;SDS011;19606;50.108;19.804;2023-02-08T04:54:28;128.30;;;48.22;;
33246;SDS011;19606;50.108;19.804;2023-02-08T04:56:54;120.22;;;44.22;;
33246;SDS011;19606;50.108;19.804;2023-02-08T04:59:19;104.65;;;42.63;;
33246;SDS011;19606;50.108;19.804;2023-02-08T05:01:45;108.53;;;43.90;;
33246;SDS011;19606;50.108;19.804;2023-02-08T05:04:11;121.57;;;43.95;;
33246;SDS011;19606;50.108;19.804;2023-02-08T05:06:36;117.78;;;42.58;;
33246;SDS011;19606;50.108;19.804;2023-02-08T05:09:02;102.70;;;42.72;;
33246;SDS011;19606;50.108;19.804;2023-02-08T05:11:32;123.13;;;46.90;;
33246;SDS011;19606;50.108;19.804;2023-02-08T05:13:57;124.47;;;47.80;;
33246;SDS011;19606;50.108;19.804;2023-02-08T05:16:23;111.65;;;42.28;;
33246;SDS011;19606;50.108;19.804;2023-02-08T05:18:48;121.00;;;44.78;;
33246;SDS011;19606;50.108;19.804;2023-02-08T05:21:14;115.40;;;41.83;;
33246;SDS011;19606;50.108;19.804;2023-02-08T05:23:40;110.85;;;41.17;;
33246;SDS011;19606;50.108;19.804;2023-02-08T05:26:06;100.43;;;38.38;;
33246;SDS011;19606;50.108;19.804;2023-02-08T05:28:33;115.88;;;43.40;;
33246;SDS011;19606;50.108;19.804;2023-02-08T05:31:15;96.53;;;38.03;;
33246;SDS011;19606;50.108;19.804;2023-02-08T05:33:43;102.97;;;39.78;;
33246;SDS011;19606;50.108;19.804;2023-02-08T05:36:09;106.22;;;39.17;;
33246;SDS011;19606;50.108;19.804;2023-02-08T05:38:35;98.65;;;40.38;;
33246;SDS011;19606;50.108;19.804;2023-02-08T05:41:00;107.20;;;40.63;;
33246;SDS011;19606;50.108;19.804;2023-02-08T05:43:26;119.40;;;41.20;;
33246;SDS011;19606;50.108;19.804;2023-02-08T05:45:51;102.60;;;40.10;;
33246;SDS011;19606;50.108;19.804;2023-02-08T05:48:17;105.93;;;40.17;;
33246;SDS011;19606;50.108;19.804;2023-02-08T05:50:43;91.72;;;36.78;;
33246;SDS011;19606;50.108;19.804;2023-02-08T05:53:08;105.55;;;39.85;;
33246;SDS011;19606;50.108;19.804;2023-02-08T05:55:35;100.13;;;38.42;;
33246;SDS011;19606;50.108;19.804;2023-02-08T05:58:01;102.50;;;39.80;;
33246;SDS011;19606;50.108;19.804;2023-02-08T06:00:26;111.65;;;42.28;;
33246;SDS011;19606;50.108;19.804;2023-02-08T06:02:52;130.05;;;45.53;;
33246;SDS011;19606;50.108;19.804;2023-02-08T06:05:18;124.20;;;41.30;;
33246;SDS011;19606;50.108;19.804;2023-02-08T06:07:43;121.07;;;45.85;;
33246;SDS011;19606;50.108;19.804;2023-02-08T06:10:09;120.70;;;46.75;;
33246;SDS011;19606;50.108;19.804;2023-02-08T06:12:35;127.32;;;46.28;;
33246;SDS011;19606;50.108;19.804;2023-02-08T06:15:00;122.85;;;45.85;;
33246;SDS011;19606;50.108;19.804;2023-02-08T06:17:26;118.75;;;45.80;;
33246;SDS011;19606;50.108;19.804;2023-02-08T06:19:52;134.70;;;48.47;;
33246;SDS011;19606;50.108;19.804;2023-02-08T06:22:18;129.18;;;48.75;;
33246;SDS011;19606;50.108;19.804;2023-02-08T06:24:43;136.35;;;51.10;;
33246;SDS011;19606;50.108;19.804;2023-02-08T06:27:09;133.75;;;49.33;;
33246;SDS011;19606;50.108;19.804;2023-02-08T06:29:35;118.90;;;47.47;;
33246;SDS011;19606;50.108;19.804;2023-02-08T06:32:00;128.32;;;48.80;;
33246;SDS011;19606;50.108;19.804;2023-02-08T06:34:26;118.05;;;45.88;;
33246;SDS011;19606;50.108;19.804;2023-02-08T06:36:52;152.07;;;58.35;;
33246;SDS011;19606;50.108;19.804;2023-02-08T06:39:18;159.13;;;59.97;;
33246;SDS011;19606;50.108;19.804;2023-02-08T06:41:44;156.85;;;59.25;;
33246;SDS011;19606;50.108;19.804;2023-02-08T06:44:09;150.88;;;59.00;;
33246;SDS011;19606;50.108;19.804;2023-02-08T06:46:35;148.82;;;52.13;;
33246;SDS011;19606;50.108;19.804;2023-02-08T06:49:00;136.02;;;50.05;;
33246;SDS011;19606;50.108;19.804;2023-02-08T06:51:26;133.30;;;51.50;;
33246;SDS011;19606;50.108;19.804;2023-02-08T06:53:52;143.88;;;54.55;;
33246;SDS011;19606;50.108;19.804;2023-02-08T06:56:17;150.27;;;56.47;;
33246;SDS011;19606;50.108;19.804;2023-02-08T06:58:43;145.10;;;54.85;;
33246;SDS011;19606;50.108;19.804;2023-02-08T07:01:12;139.02;;;52.50;;
33246;SDS011;19606;50.108;19.804;2023-02-08T07:03:38;133.23;;;52.67;;
33246;SDS011;19606;50.108;19.804;2023-02-08T07:06:05;133.50;;;50.15;;
33246;SDS011;19606;50.108;19.804;2023-02-08T07:08:36;134.70;;;49.85;;
33246;SDS011;19606;50.108;19.804;2023-02-08T07:11:08;143.43;;;52.55;;
33246;SDS011;19606;50.108;19.804;2023-02-08T07:13:36;141.45;;;53.20;;
33246;SDS011;19606;50.108;19.804;2023-02-08T07:16:02;135.57;;;54.70;;
33246;SDS011;19606;50.108;19.804;2023-02-08T07:18:30;134.95;;;50.72;;
33246;SDS011;19606;50.108;19.804;2023-02-08T07:20:57;127.70;;;49.88;;
33246;SDS011;19606;50.108;19.804;2023-02-08T07:23:23;118.97;;;47.33;;
33246;SDS011;19606;50.108;19.804;2023-02-08T07:26:02;131.15;;;49.85;;
33246;SDS011;19606;50.108;19.804;2023-02-08T07:28:33;121.80;;;49.45;;
33246;SDS011;19606;50.108;19.804;2023-02-08T07:30:59;121.50;;;49.58;;
33246;SDS011;19606;50.108;19.804;2023-02-08T07:33:28;125.68;;;48.30;;
33246;SDS011;19606;50.108;19.804;2023-02-08T07:35:53;120.68;;;46.40;;
33246;SDS011;19606;50.108;19.804;2023-02-08T07:38:19;121.88;;;48.17;;
33246;SDS011;19606;50.108;19.804;2023-02-08T07:40:45;120.00;;;45.50;;
33246;SDS011;19606;50.108;19.804;2023-02-08T07:43:10;112.05;;;44.15;;
33246;SDS011;19606;50.108;19.804;2023-02-08T07:45:36;114.85;;;44.25;;
33246;SDS011;19606;50.108;19.804;2023-02-08T07:48:02;112.65;;;45.17;;
33246;SDS011;19606;50.108;19.804;2023-02-08T07:50:28;117.72;;;45.38;;
33246;SDS011;19606;50.108;19.804;2023-02-08T07:52:54;111.70;;;41.45;;
33246;SDS011;19606;50.108;19.804;2023-02-08T07:55:19;108.47;;;43.28;;
33246;SDS011;19606;50.108;19.804;2023-02-08T07:57:45;112.95;;;45.22;;
33246;SDS011;19606;50.108;19.804;2023-02-08T08:00:14;100.50;;;43.63;;
33246;SDS011;19606;50.108;19.804;2023-02-08T08:02:41;109.43;;;45.55;;
33246;SDS011;19606;50.108;19.804;2023-02-08T08:05:07;111.20;;;47.50;;
33246;SDS011;19606;50.108;19.804;2023-02-08T08:07:34;113.28;;;46.75;;
33246;SDS011;19606;50.108;19.804;2023-02-08T08:10:00;112.55;;;43.63;;
33246;SDS011;19606;50.108;19.804;2023-02-08T08:12:25;104.47;;;41.65;;
33246;SDS011;19606;50.108;19.804;2023-02-08T08:14:51;98.13;;;39.95;;
33246;SDS011;19606;50.108;19.804;2023-02-08T08:17:19;109.18;;;41.97;;
33246;SDS011;19606;50.108;19.804;2023-02-08T08:19:45;111.07;;;42.72;;
33246;SDS011;19606;50.108;19.804;2023-02-08T08:22:11;119.07;;;45.17;;
33246;SDS011;19606;50.108;19.804;2023-02-08T08:24:36;106.88;;;43.85;;
33246;SDS011;19606;50.108;19.804;2023-02-08T08:27:03;130.50;;;44.28;;
33246;SDS011;19606;50.108;19.804;2023-02-08T08:29:30;109.53;;;41.00;;
33246;SDS011;19606;50.108;19.804;2023-02-08T08:31:57;95.78;;;39.08;;
33246;SDS011;19606;50.108;19.804;2023-02-08T08:34:23;98.18;;;39.55;;
33246;SDS011;19606;50.108;19.804;2023-02-08T08:36:54;87.22;;;37.83;;
33246;SDS011;19606;50.108;19.804;2023-02-08T08:39:23;84.35;;;32.83;;
33246;SDS011;19606;50.108;19.804;2023-02-08T08:41:50;75.35;;;31.42;;
33246;SDS011;19606;50.108;19.804;2023-02-08T08:44:16;87.70;;;32.63;;
33246;SDS011;19606;50.108;19.804;2023-02-08T08:46:42;79.85;;;33.13;;
33246;SDS011;19606;50.108;19.804;2023-02-08T08:49:08;80.10;;;32.17;;
33246;SDS011;19606;50.108;19.804;2023-02-08T08:51:34;74.70;;;30.27;;
33246;SDS011;19606;50.108;19.804;2023-02-08T08:54:00;71.85;;;30.33;;
33246;SDS011;19606;50.108;19.804;2023-02-08T08:56:26;67.47;;;26.55;;
33246;SDS011;19606;50.108;19.804;2023-02-08T08:58:52;70.47;;;27.50;;
33246;SDS011;19606;50.108;19.804;2023-02-08T09:01:18;75.20;;;27.58;;
33246;SDS011;19606;50.108;19.804;2023-02-08T09:03:43;67.85;;;25.70;;
33246;SDS011;19606;50.108;19.804;2023-02-08T09:06:09;60.97;;;21.95;;
33246;SDS011;19606;50.108;19.804;2023-02-08T09:08:35;59.22;;;24.50;;
33246;SDS011;19606;50.108;19.804;2023-02-08T09:11:09;65.38;;;23.55;;
33246;SDS011;19606;50.108;19.804;2023-02-08T09:13:36;62.50;;;24.92;;
33246;SDS011;19606;50.108;19.804;2023-02-08T09:16:06;67.43;;;25.10;;
33246;SDS011;19606;50.108;19.804;2023-02-08T09:18:34;68.18;;;24.42;;
33246;SDS011;19606;50.108;19.804;2023-02-08T09:21:04;72.43;;;27.83;;
33246;SDS011;19606;50.108;19.804;2023-02-08T09:23:37;86.05;;;33.53;;
33246;SDS011;19606;50.108;19.804;2023-02-08T09:26:03;71.32;;;29.65;;
33246;SDS011;19606;50.108;19.804;2023-02-08T09:28:31;72.20;;;32.50;;
33246;SDS011;19606;50.108;19.804;2023-02-08T09:30:58;83.85;;;30.52;;
33246;SDS011;19606;50.108;19.804;2023-02-08T09:33:31;76.25;;;26.00;;
33246;SDS011;19606;50.108;19.804;2023-02-08T09:35:56;76.43;;;28.90;;
33246;SDS011;19606;50.108;19.804;2023-02-08T09:38:22;88.90;;;34.47;;
33246;SDS011;19606;50.108;19.804;2023-02-08T09:40:49;60.10;;;24.73;;
33246;SDS011;19606;50.108;19.804;2023-02-08T09:46:35;55.38;;;23.90;;
33246;SDS011;19606;50.108;19.804;2023-02-08T09:49:06;57.20;;;24.00;;
33246;SDS011;19606;50.108;19.804;2023-02-08T09:51:40;44.50;;;19.65;;
33246;SDS011;19606;50.108;19.804;2023-02-08T09:54:27;46.63;;;18.42;;
33246;SDS011;19606;50.108;19.804;2023-02-08T09:57:07;43.80;;;18.98;;
33246;SDS011;19606;50.108;19.804;2023-02-08T09:59:37;46.55;;;20.08;;
33246;SDS011;19606;50.108;19.804;2023-02-08T10:04:56;36.97;;;18.70;;
33246;SDS011;19606;50.108;19.804;2023-02-08T10:07:29;33.88;;;14.40;;
33246;SDS011;19606;50.108;19.804;2023-02-08T10:09:57;32.30;;;13.88;;
33246;SDS011;19606;50.108;19.804;2023-02-08T10:20:53;35.50;;;15.27;;
33246;SDS011;19606;50.108;19.804;2023-02-08T10:29:02;37.17;;;16.60;;
33246;SDS011;19606;50.108;19.804;2023-02-08T10:37:05;36.50;;;14.82;;
33246;SDS011;19606;50.108;19.804;2023-02-08T10:39:43;37.55;;;15.13;;
33246;SDS011;19606;50.108;19.804;2023-02-08T10:42:16;32.72;;;14.52;;
33246;SDS011;19606;50.108;19.804;2023-02-08T10:45:00;36.22;;;15.63;;
33246;SDS011;19606;50.108;19.804;2023-02-08T10:50:24;30.25;;;14.18;;
33246;SDS011;19606;50.108;19.804;2023-02-08T10:52:53;31.92;;;13.88;;
33246;SDS011;19606;50.108;19.804;2023-02-08T10:55:19;26.30;;;12.40;;
33246;SDS011;19606;50.108;19.804;2023-02-08T10:57:45;23.33;;;10.20;;
33246;SDS011;19606;50.108;19.804;2023-02-08T11:02:46;20.52;;;9.65;;
33246;SDS011;19606;50.108;19.804;2023-02-08T11:05:19;22.10;;;10.65;;
33246;SDS011;19606;50.108;19.804;2023-02-08T11:08:05;24.60;;;12.40;;
33246;SDS011;19606;50.108;19.804;2023-02-08T11:11:05;31.80;;;15.90;;
33246;SDS011;19606;50.108;19.804;2023-02-08T11:13:38;39.08;;;17.27;;
33246;SDS011;19606;50.108;19.804;2023-02-08T11:16:06;32.67;;;15.95;;
33246;SDS011;19606;50.108;19.804;2023-02-08T11:18:39;43.05;;;18.60;;
33246;SDS011;19606;50.108;19.804;2023-02-08T11:24:22;38.17;;;16.35;;
33246;SDS011;19606;50.108;19.804;2023-02-08T11:27:17;37.20;;;16.63;;
33246;SDS011;19606;50.108;19.804;2023-02-08T11:35:57;38.05;;;18.33;;
33246;SDS011;19606;50.108;19.804;2023-02-08T11:38:28;37.22;;;18.02;;
33246;SDS011;19606;50.108;19.804;2023-02-08T11:40:58;39.50;;;17.50;;
33246;SDS011;19606;50.108;19.804;2023-02-08T11:43:27;37.38;;;16.92;;
33246;SDS011;19606;50.108;19.804;2023-02-08T11:45:56;38.15;;;18.55;;
33246;SDS011;19606;50.108;19.804;2023-02-08T11:48:24;36.60;;;17.23;;
33246;SDS011;19606;50.108;19.804;2023-02-08T11:50:52;37.25;;;17.95;;
33246;SDS011;19606;50.108;19.804;2023-02-08T11:53:31;37.35;;;18.08;;
33246;SDS011;19606;50.108;19.804;2023-02-08T11:56:33;37.45;;;17.48;;
33246;SDS011;19606;50.108;19.804;2023-02-08T11:58:57;33.17;;;17.90;;
33246;SDS011;19606;50.108;19.804;2023-02-08T12:01:36;32.30;;;16.83;;
33246;SDS011;19606;50.108;19.804;2023-02-08T12:04:11;34.78;;;15.70;;
33246;SDS011;19606;50.108;19.804;2023-02-08T12:12:28;31.35;;;17.13;;
33246;SDS011;19606;50.108;19.804;2023-02-08T12:18:04;38.45;;;18.58;;
33246;SDS011;19606;50.108;19.804;2023-02-08T12:31:33;40.08;;;17.98;;
33246;SDS011;19606;50.108;19.804;2023-02-08T12:34:17;34.03;;;17.67;;
33246;SDS011;19606;50.108;19.804;2023-02-08T12:40:22;37.13;;;18.65;;
33246;SDS011;19606;50.108;19.804;2023-02-08T12:51:36;38.50;;;19.77;;
33246;SDS011;19606;50.108;19.804;2023-02-08T12:54:09;36.75;;;18.08;;
33246;SDS011;19606;50.108;19.804;2023-02-08T12:56:47;33.13;;;17.67;;
33246;SDS011;19606;50.108;19.804;2023-02-08T12:59:22;39.05;;;18.23;;
33246;SDS011;19606;50.108;19.804;2023-02-08T13:02:16;42.22;;;19.60;;
33246;SDS011;19606;50.108;19.804;2023-02-08T13:04:50;35.50;;;17.60;;
33246;SDS011;19606;50.108;19.804;2023-02-08T13:07:26;31.50;;;17.85;;
33246;SDS011;19606;50.108;19.804;2023-02-08T13:12:28;35.08;;;18.55;;
33246;SDS011;19606;50.108;19.804;2023-02-08T13:15:20;33.38;;;17.83;;
33246;SDS011;19606;50.108;19.804;2023-02-08T13:17:55;31.45;;;17.33;;
33246;SDS011;19606;50.108;19.804;2023-02-08T13:20:43;34.35;;;16.73;;
33246;SDS011;19606;50.108;19.804;2023-02-08T13:23:26;31.83;;;17.83;;
33246;SDS011;19606;50.108;19.804;2023-02-08T13:26:14;31.17;;;17.63;;
33246;SDS011;19606;50.108;19.804;2023-02-08T13:28:51;30.15;;;16.58;;
33246;SDS011;19606;50.108;19.804;2023-02-08T13:31:31;29.52;;;17.58;;
33246;SDS011;19606;50.108;19.804;2023-02-08T13:34:17;29.75;;;17.85;;
33246;SDS011;19606;50.108;19.804;2023-02-08T13:36:56;33.95;;;18.98;;
33246;SDS011;19606;50.108;19.804;2023-02-08T13:41:57;35.58;;;19.67;;
33246;SDS011;19606;50.108;19.804;2023-02-08T13:44:30;42.40;;;20.50;;
33246;SDS011;19606;50.108;19.804;2023-02-08T13:46:59;34.90;;;20.80;;
33246;SDS011;19606;50.108;19.804;2023-02-08T13:53:07;38.03;;;19.67;;
33246;SDS011;19606;50.108;19.804;2023-02-08T14:06:36;33.03;;;19.70;;
33246;SDS011;19606;50.108;19.804;2023-02-08T14:08:49;35.75;;;21.58;;
33246;SDS011;19606;50.108;19.804;2023-02-08T14:11:46;42.35;;;23.73;;
33246;SDS011;19606;50.108;19.804;2023-02-08T14:14:18;40.45;;;21.83;;
33246;SDS011;19606;50.108;19.804;2023-02-08T14:19:39;32.75;;;19.83;;
33246;SDS011;19606;50.108;19.804;2023-02-08T14:24:59;35.15;;;18.77;;
33246;SDS011;19606;50.108;19.804;2023-02-08T14:27:42;33.15;;;18.52;;
33246;SDS011;19606;50.108;19.804;2023-02-08T14:32:47;37.60;;;19.65;;
33246;SDS011;19606;50.108;19.804;2023-02-08T14:35:20;41.33;;;20.15;;
33246;SDS011;19606;50.108;19.804;2023-02-08T14:37:49;47.33;;;20.77;;
33246;SDS011;19606;50.108;19.804;2023-02-08T14:40:54;35.90;;;18.55;;
33246;SDS011;19606;50.108;19.804;2023-02-08T14:49:09;39.45;;;18.52;;
33246;SDS011;19606;50.108;19.804;2023-02-08T14:51:38;37.45;;;17.40;;
33246;SDS011;19606;50.108;19.804;2023-02-08T14:54:22;35.50;;;17.25;;
33246;SDS011;19606;50.108;19.804;2023-02-08T14:56:53;36.00;;;18.15;;
33246;SDS011;19606;50.108;19.804;2023-02-08T14:59:25;39.83;;;18.33;;
33246;SDS011;19606;50.108;19.804;2023-02-08T15:01:55;34.95;;;17.38;;
33246;SDS011;19606;50.108;19.804;2023-02-08T15:04:23;39.40;;;18.73;;
33246;SDS011;19606;50.108;19.804;2023-02-08T15:09:28;41.45;;;18.77;;
33246;SDS011;19606;50.108;19.804;2023-02-08T15:14:23;41.05;;;19.55;;
33246;SDS011;19606;50.108;19.804;2023-02-08T15:16:50;39.95;;;19.08;;
33246;SDS011;19606;50.108;19.804;2023-02-08T15:21:53;38.22;;;18.00;;
33246;SDS011;19606;50.108;19.804;2023-02-08T15:24:22;41.42;;;20.63;;
33246;SDS011;19606;50.108;19.804;2023-02-08T15:26:53;53.25;;;21.00;;
33246;SDS011;19606;50.108;19.804;2023-02-08T15:29:21;49.58;;;20.73;;
33246;SDS011;19606;50.108;19.804;2023-02-08T15:31:51;44.78;;;20.20;;
33246;SDS011;19606;50.108;19.804;2023-02-08T15:34:18;47.80;;;21.10;;
33246;SDS011;19606;50.108;19.804;2023-02-08T15:36:49;49.00;;;21.20;;
33246;SDS011;19606;50.108;19.804;2023-02-08T15:39:30;45.83;;;19.98;;
33246;SDS011;19606;50.108;19.804;2023-02-08T15:42:03;43.50;;;21.08;;
33246;SDS011;19606;50.108;19.804;2023-02-08T15:44:31;52.90;;;21.67;;
33246;SDS011;19606;50.108;19.804;2023-02-08T15:46:58;51.45;;;23.50;;
33246;SDS011;19606;50.108;19.804;2023-02-08T15:49:33;55.28;;;25.50;;
33246;SDS011;19606;50.108;19.804;2023-02-08T15:52:02;44.58;;;21.80;;
33246;SDS011;19606;50.108;19.804;2023-02-08T15:54:29;53.15;;;24.25;;
33246;SDS011;19606;50.108;19.804;2023-02-08T15:56:59;58.53;;;25.98;;
33246;SDS011;19606;50.108;19.804;2023-02-08T15:59:49;50.33;;;25.33;;
33246;SDS011;19606;50.108;19.804;2023-02-08T16:04:58;58.65;;;23.58;;
33246;SDS011;19606;50.108;19.804;2023-02-08T16:07:30;49.38;;;22.10;;
33246;SDS011;19606;50.108;19.804;2023-02-08T16:10:00;57.45;;;22.67;;
33246;SDS011;19606;50.108;19.804;2023-02-08T16:12:26;53.83;;;22.77;;
33246;SDS011;19606;50.108;19.804;2023-02-08T16:14:53;56.47;;;24.42;;
33246;SDS011;19606;50.108;19.804;2023-02-08T16:20:22;61.55;;;26.40;;
33246;SDS011;19606;50.108;19.804;2023-02-08T16:23:04;71.35;;;30.15;;
33246;SDS011;19606;50.108;19.804;2023-02-08T16:26:15;65.65;;;29.63;;
33246;SDS011;19606;50.108;19.804;2023-02-08T16:28:55;61.53;;;28.35;;
33246;SDS011;19606;50.108;19.804;2023-02-08T16:31:25;59.17;;;26.58;;
33246;SDS011;19606;50.108;19.804;2023-02-08T16:36:31;81.88;;;29.83;;
33246;SDS011;19606;50.108;19.804;2023-02-08T16:39:18;66.32;;;28.83;;
33246;SDS011;19606;50.108;19.804;2023-02-08T16:42:00;70.03;;;31.83;;
33246;SDS011;19606;50.108;19.804;2023-02-08T16:44:32;66.90;;;32.20;;
33246;SDS011;19606;50.108;19.804;2023-02-08T16:47:00;78.05;;;32.75;;
33246;SDS011;19606;50.108;19.804;2023-02-08T16:49:36;67.05;;;29.88;;
33246;SDS011;19606;50.108;19.804;2023-02-08T16:52:02;73.85;;;30.80;;
33246;SDS011;19606;50.108;19.804;2023-02-08T16:54:27;76.25;;;31.40;;
33246;SDS011;19606;50.108;19.804;2023-02-08T16:56:55;89.45;;;34.67;;
33246;SDS011;19606;50.108;19.804;2023-02-08T16:59:24;87.80;;;36.47;;